Time;durP1;ratioP1;P1;durP2;ratioP2;P2;SDS_P1;SDS_P2;PMS_P1;PMS_P2;Temp;Humidity;BMP_temperature;BMP_pressure;BME280_temperature;BME280_humidity;BME280_pressure;Samples;Min_cycle;Max_cycle;Signal;HPM_P1;HPM_P2
2022/08/08 00:00:56;;;;;;;7.07;4.65;;;;;;;;;;5070399;28;20036;-75
2022/08/08 00:03:32;;;;;;;6.28;4.53;;;;;;;;;;5064135;28;20031;-76
2022/08/08 00:06:11;;;;;;;5.50;4.20;;;;;;;;;;5063103;28;20603;-74
2022/08/08 00:09:18;;;;;;;6.20;4.78;;;;;;;;;;5056912;28;20466;-79
2022/08/08 00:11:48;;;;;;;5.80;4.30;;;;;;;;;;5032715;28;20032;-75
2022/08/08 00:14:48;;;;;;;6.38;5.00;;;;;;;;;;5060419;28;20033;-73
2022/08/08 00:17:22;;;;;;;5.43;4.13;;;;;;;;;;5069467;28;20020;-76
2022/08/08 00:19:53;;;;;;;8.27;4.72;;;;;;;;;;5061417;28;20385;-76
2022/08/08 00:22:27;;;;;;;6.47;4.65;;;;;;;;;;5065798;28;20025;-80
2022/08/08 00:24:56;;;;;;;5.90;4.35;;;;;;;;;;5063247;28;20078;-76
2022/08/08 00:27:24;;;;;;;7.00;4.15;;;;;;;;;;5056692;28;20111;-74
2022/08/08 00:30:19;;;;;;;6.32;4.50;;;;;;;;;;5063628;28;20060;-74
2022/08/08 00:32:54;;;;;;;6.32;4.60;;;;;;;;;;5043452;28;20037;-74
2022/08/08 00:36:01;;;;;;;8.63;4.40;;;;;;;;;;5056682;28;20032;-74
2022/08/08 00:39:04;;;;;;;9.38;5.15;;;;;;;;;;5060705;28;20028;-74
2022/08/08 00:41:32;;;;;;;6.13;4.55;;;;;;;;;;5068268;28;20509;-75
2022/08/08 00:44:16;;;;;;;8.40;4.72;;;;;;;;;;5059096;28;20039;-80
2022/08/08 00:47:18;;;;;;;6.15;4.63;;;;;;;;;;5064704;28;20480;-79
2022/08/08 00:50:24;;;;;;;6.40;4.57;;;;;;;;;;5056878;28;20111;-78
2022/08/08 00:53:34;;;;;;;6.38;4.30;;;;;;;;;;5056945;28;20085;-78
2022/08/08 00:56:23;;;;;;;5.65;4.28;;;;;;;;;;5061309;28;20203;-75
2022/08/08 00:59:04;;;;;;;8.38;4.40;;;;;;;;;;5062020;28;20048;-75
2022/08/08 01:01:53;;;;;;;5.97;4.45;;;;;;;;;;5061490;28;20388;-75
2022/08/08 01:04:42;;;;;;;6.60;4.85;;;;;;;;;;5062081;28;20382;-76
2022/08/08 01:07:33;;;;;;;5.65;4.28;;;;;;;;;;5053781;28;20029;-73
2022/08/08 01:10:42;;;;;;;6.40;4.93;;;;;;;;;;5062089;28;20434;-74
2022/08/08 01:13:46;;;;;;;6.13;4.55;;;;;;;;;;5070425;28;20730;-74
2022/08/08 01:16:35;;;;;;;6.28;4.28;;;;;;;;;;5066082;28;20049;-73
2022/08/08 01:19:38;;;;;;;6.75;4.40;;;;;;;;;;5069769;28;20370;-79
2022/08/08 01:22:19;;;;;;;5.57;4.18;;;;;;;;;;5064296;28;20127;-79
2022/08/08 01:25:03;;;;;;;5.97;4.38;;;;;;;;;;5069694;28;20032;-75
2022/08/08 01:27:58;;;;;;;5.78;4.25;;;;;;;;;;5061970;28;20034;-74
2022/08/08 01:31:20;;;;;;;7.55;4.82;;;;;;;;;;5062093;28;20694;-74
2022/08/08 01:34:18;;;;;;;6.30;4.28;;;;;;;;;;5012355;28;20083;-74
2022/08/08 01:37:21;;;;;;;7.38;4.80;;;;;;;;;;4996479;28;20037;-75
2022/08/08 01:40:07;;;;;;;5.88;4.47;;;;;;;;;;5042352;28;20037;-76
2022/08/08 01:43:00;;;;;;;6.07;4.47;;;;;;;;;;5048180;28;20036;-75
2022/08/08 01:45:47;;;;;;;8.00;4.20;;;;;;;;;;5047672;28;20388;-74
2022/08/08 01:48:45;;;;;;;6.65;4.50;;;;;;;;;;5043888;28;20029;-78
2022/08/08 01:51:47;;;;;;;6.97;4.20;;;;;;;;;;5050061;28;20485;-74
2022/08/08 01:54:45;;;;;;;6.93;4.30;;;;;;;;;;5050429;28;20025;-80
2022/08/08 01:57:34;;;;;;;5.55;4.15;;;;;;;;;;5042635;28;21312;-80
2022/08/08 02:00:13;;;;;;;5.50;4.00;;;;;;;;;;5045659;28;20033;-73
2022/08/08 02:02:56;;;;;;;6.35;4.22;;;;;;;;;;5044733;28;20035;-76
2022/08/08 02:05:59;;;;;;;5.30;3.80;;;;;;;;;;5045400;28;20493;-74
2022/08/08 02:08:28;;;;;;;5.43;4.25;;;;;;;;;;5037624;28;20036;-80
2022/08/08 02:11:00;;;;;;;5.60;3.80;;;;;;;;;;5049839;28;20385;-76
2022/08/08 02:13:32;;;;;;;5.30;4.00;;;;;;;;;;5050758;28;20508;-75
2022/08/08 02:16:15;;;;;;;6.70;4.15;;;;;;;;;;5049128;28;20036;-74
2022/08/08 02:18:50;;;;;;;7.68;4.72;;;;;;;;;;5045875;28;20382;-76
2022/08/08 02:24:11;;;;;;;5.75;3.90;;;;;;;;;;5046409;28;20031;-76
2022/08/08 02:26:54;;;;;;;6.00;4.32;;;;;;;;;;5037576;28;20039;-80
2022/08/08 02:29:39;;;;;;;9.13;4.70;;;;;;;;;;5050953;28;20039;-75
2022/08/08 02:32:46;;;;;;;5.90;4.25;;;;;;;;;;5052640;28;20455;-75
2022/08/08 02:35:52;;;;;;;6.30;4.22;;;;;;;;;;5064263;28;20121;-74
2022/08/08 02:38:32;;;;;;;6.88;4.35;;;;;;;;;;5058198;28;20476;-75
2022/08/08 02:41:19;;;;;;;5.47;3.97;;;;;;;;;;5067131;28;20056;-74
2022/08/08 02:44:24;;;;;;;5.97;4.22;;;;;;;;;;5055688;28;20037;-73
2022/08/08 02:47:15;;;;;;;5.88;4.53;;;;;;;;;;5049285;28;20685;-79
2022/08/08 02:49:40;;;;;;;5.57;4.32;;;;;;;;;;5065741;28;20028;-76
2022/08/08 02:52:33;;;;;;;6.88;4.43;;;;;;;;;;5063892;28;20031;-76
2022/08/08 02:55:16;;;;;;;5.22;4.10;;;;;;;;;;5070712;28;20025;-79
2022/08/08 02:58:24;;;;;;;6.40;4.28;;;;;;;;;;5063830;28;20032;-75
2022/08/08 03:01:12;;;;;;;5.90;4.00;;;;;;;;;;5034803;28;20097;-79
2022/08/08 03:04:26;;;;;;;7.97;4.30;;;;;;;;;;5058469;28;20028;-74
2022/08/08 03:07:14;;;;;;;5.45;3.80;;;;;;;;;;5067035;28;20024;-76
2022/08/08 03:10:07;;;;;;;6.43;3.75;;;;;;;;;;5058946;28;20032;-74
2022/08/08 03:12:35;;;;;;;5.95;3.55;;;;;;;;;;5066829;28;20024;-75
2022/08/08 03:15:08;;;;;;;6.70;3.97;;;;;;;;;;5063894;28;20143;-80
2022/08/08 03:17:44;;;;;;;5.47;3.50;;;;;;;;;;5067776;28;20389;-75
2022/08/08 03:20:10;;;;;;;4.95;3.70;;;;;;;;;;5062274;28;20028;-75
2022/08/08 03:22:53;;;;;;;7.68;3.97;;;;;;;;;;5059770;28;20460;-77
2022/08/08 03:25:26;;;;;;;5.20;3.60;;;;;;;;;;5063080;28;20627;-73
2022/08/08 03:28:02;;;;;;;5.18;3.60;;;;;;;;;;5061710;28;20063;-74
2022/08/08 03:30:27;;;;;;;5.82;3.50;;;;;;;;;;5068072;28;20073;-76
2022/08/08 03:35:39;;;;;;;5.68;3.70;;;;;;;;;;5062241;28;20397;-79
2022/08/08 03:38:05;;;;;;;5.60;3.60;;;;;;;;;;5060477;28;20032;-77
2022/08/08 03:40:30;;;;;;;5.63;3.65;;;;;;;;;;5062944;28;20496;-80
2022/08/08 03:42:57;;;;;;;5.72;3.92;;;;;;;;;;5068678;28;20033;-79
2022/08/08 03:45:24;;;;;;;5.28;3.65;;;;;;;;;;5066799;28;20031;-74
2022/08/08 03:48:06;;;;;;;5.32;3.85;;;;;;;;;;5063822;28;20079;-74
2022/08/08 03:50:32;;;;;;;4.38;3.33;;;;;;;;;;5063000;28;20024;-74
2022/08/08 03:53:06;;;;;;;4.43;3.00;;;;;;;;;;5061312;28;20047;-74
2022/08/08 03:55:36;;;;;;;5.45;3.70;;;;;;;;;;5060684;28;20032;-74
2022/08/08 03:58:01;;;;;;;5.38;3.40;;;;;;;;;;5060043;28;20056;-74
2022/08/08 04:00:28;;;;;;;5.18;3.50;;;;;;;;;;5068978;28;20070;-73
2022/08/08 04:03:07;;;;;;;5.18;3.58;;;;;;;;;;5067299;28;20495;-73
2022/08/08 04:05:36;;;;;;;5.07;3.42;;;;;;;;;;5064307;28;20392;-79
2022/08/08 04:08:05;;;;;;;5.20;3.80;;;;;;;;;;5064587;28;20031;-76
2022/08/08 04:10:31;;;;;;;5.40;3.83;;;;;;;;;;5068508;28;20024;-79
2022/08/08 04:12:57;;;;;;;5.45;3.60;;;;;;;;;;5064314;28;20086;-79
2022/08/08 04:15:23;;;;;;;5.30;3.78;;;;;;;;;;5063600;28;20745;-76
2022/08/08 04:17:49;;;;;;;6.57;3.80;;;;;;;;;;5068514;28;20027;-75
2022/08/08 04:20:14;;;;;;;4.95;3.67;;;;;;;;;;5060932;28;20665;-77
2022/08/08 04:22:40;;;;;;;6.75;4.43;;;;;;;;;;5065605;28;20032;-74
2022/08/08 04:25:06;;;;;;;5.38;3.90;;;;;;;;;;5063319;28;20024;-77
2022/08/08 04:27:33;;;;;;;6.72;4.10;;;;;;;;;;5060006;28;20161;-75
2022/08/08 04:29:59;;;;;;;5.15;3.53;;;;;;;;;;5063029;28;20042;-79
2022/08/08 04:32:24;;;;;;;5.18;3.42;;;;;;;;;;5066500;28;20105;-80
2022/08/08 04:34:49;;;;;;;6.50;3.90;;;;;;;;;;5064190;28;20119;-80
2022/08/08 04:37:15;;;;;;;6.38;3.70;;;;;;;;;;5064352;28;20460;-74
2022/08/08 04:39:41;;;;;;;6.10;3.90;;;;;;;;;;5066233;28;20484;-76
2022/08/08 04:42:07;;;;;;;6.13;4.07;;;;;;;;;;5056338;28;20032;-73
2022/08/08 04:44:32;;;;;;;5.88;4.30;;;;;;;;;;5064629;28;20021;-80
2022/08/08 04:46:58;;;;;;;6.60;3.70;;;;;;;;;;5064204;28;20024;-75
2022/08/08 04:49:23;;;;;;;6.60;4.30;;;;;;;;;;5052373;28;20028;-76
2022/08/08 04:51:48;;;;;;;6.00;4.20;;;;;;;;;;5063345;28;20614;-75
2022/08/08 04:54:14;;;;;;;5.82;4.30;;;;;;;;;;5061613;28;20039;-74
2022/08/08 04:56:39;;;;;;;5.45;4.13;;;;;;;;;;5060940;28;20584;-74
2022/08/08 04:59:04;;;;;;;5.43;3.80;;;;;;;;;;5065591;28;20048;-74
2022/08/08 05:01:30;;;;;;;7.03;4.40;;;;;;;;;;5062609;28;20032;-76
2022/08/08 05:03:55;;;;;;;5.68;3.95;;;;;;;;;;5065056;28;20142;-79
2022/08/08 05:06:21;;;;;;;5.18;3.80;;;;;;;;;;5059136;28;20632;-73
2022/08/08 05:08:47;;;;;;;5.00;3.50;;;;;;;;;;5063565;28;20033;-74
2022/08/08 05:11:12;;;;;;;6.28;3.80;;;;;;;;;;5056890;28;20107;-79
2022/08/08 05:13:42;;;;;;;6.57;3.75;;;;;;;;;;5059151;28;20028;-76
2022/08/08 05:16:08;;;;;;;7.78;3.60;;;;;;;;;;5057712;28;20031;-76
2022/08/08 05:18:35;;;;;;;4.82;3.42;;;;;;;;;;5058944;28;20024;-80
2022/08/08 05:21:03;;;;;;;5.07;3.30;;;;;;;;;;5057705;28;20028;-80
2022/08/08 05:23:28;;;;;;;5.55;3.63;;;;;;;;;;5055659;28;20024;-74
2022/08/08 05:25:54;;;;;;;5.40;3.35;;;;;;;;;;5058361;28;20040;-78
2022/08/08 05:28:19;;;;;;;5.85;3.42;;;;;;;;;;5061488;28;20032;-80
2022/08/08 05:30:44;;;;;;;6.20;3.70;;;;;;;;;;5055453;28;20059;-76
2022/08/08 05:33:10;;;;;;;4.80;3.42;;;;;;;;;;5058371;28;20044;-81
2022/08/08 05:35:40;;;;;;;6.22;3.55;;;;;;;;;;5055738;28;20526;-77
2022/08/08 05:38:06;;;;;;;6.68;3.60;;;;;;;;;;5057838;28;20028;-74
2022/08/08 05:40:33;;;;;;;6.97;4.10;;;;;;;;;;5064609;28;20037;-79
2022/08/08 05:43:09;;;;;;;7.07;3.60;;;;;;;;;;5063827;28;20082;-80
2022/08/08 05:45:36;;;;;;;5.53;3.47;;;;;;;;;;5066366;28;20115;-76
2022/08/08 05:48:02;;;;;;;4.82;3.50;;;;;;;;;;5059007;28;20036;-80
2022/08/08 05:50:30;;;;;;;4.85;3.20;;;;;;;;;;5069552;28;20111;-75
2022/08/08 05:52:55;;;;;;;5.80;3.30;;;;;;;;;;5063592;28;20032;-76
2022/08/08 05:55:21;;;;;;;5.20;3.10;;;;;;;;;;5070622;28;20415;-77
2022/08/08 05:57:50;;;;;;;4.60;3.28;;;;;;;;;;5066243;28;20033;-75
2022/08/08 06:00:16;;;;;;;6.13;3.75;;;;;;;;;;5069574;28;20067;-75
2022/08/08 06:05:33;;;;;;;7.25;3.33;;;;;;;;;;5062320;28;20039;-74
2022/08/08 06:08:00;;;;;;;5.18;3.63;;;;;;;;;;5057358;28;20480;-76
2022/08/08 06:10:31;;;;;;;5.68;3.38;;;;;;;;;;5064249;28;20016;-74
2022/08/08 06:12:56;;;;;;;5.72;3.30;;;;;;;;;;5063856;28;20021;-76
2022/08/08 06:15:22;;;;;;;8.65;3.83;;;;;;;;;;5065361;28;20024;-76
2022/08/08 06:17:49;;;;;;;4.75;3.40;;;;;;;;;;5062855;28;20025;-76
2022/08/08 06:20:14;;;;;;;7.18;3.50;;;;;;;;;;5065001;28;20028;-75
2022/08/08 06:22:40;;;;;;;5.80;3.20;;;;;;;;;;5061627;28;20032;-76
2022/08/08 06:25:07;;;;;;;5.07;3.03;;;;;;;;;;5066801;28;20033;-80
2022/08/08 06:27:52;;;;;;;5.68;3.50;;;;;;;;;;5066061;28;20392;-80
2022/08/08 06:30:21;;;;;;;4.85;3.30;;;;;;;;;;5067075;28;20052;-76
2022/08/08 06:32:52;;;;;;;4.50;2.90;;;;;;;;;;5069416;28;20041;-76
2022/08/08 06:35:18;;;;;;;4.72;2.97;;;;;;;;;;5063264;28;20032;-75
2022/08/08 06:37:55;;;;;;;3.47;2.53;;;;;;;;;;5068528;28;20043;-75
2022/08/08 06:40:24;;;;;;;5.82;3.17;;;;;;;;;;5071910;28;20086;-77
2022/08/08 06:42:53;;;;;;;5.57;2.95;;;;;;;;;;5064694;28;20028;-75
2022/08/08 06:45:21;;;;;;;5.70;2.88;;;;;;;;;;5059290;28;20108;-81
2022/08/08 06:47:47;;;;;;;4.53;2.92;;;;;;;;;;5070742;28;20028;-75
2022/08/08 06:50:13;;;;;;;5.30;3.03;;;;;;;;;;5068592;28;20491;-76
2022/08/08 06:52:38;;;;;;;5.63;2.83;;;;;;;;;;5061196;28;20055;-75
2022/08/08 06:55:06;;;;;;;6.60;3.25;;;;;;;;;;5060757;28;20491;-81
2022/08/08 06:57:32;;;;;;;4.43;2.50;;;;;;;;;;5068141;28;20028;-76
2022/08/08 06:59:57;;;;;;;3.85;2.50;;;;;;;;;;5059408;28;20024;-81
2022/08/08 07:02:26;;;;;;;3.90;2.47;;;;;;;;;;5068561;28;20025;-76
2022/08/08 07:04:54;;;;;;;5.63;2.20;;;;;;;;;;5067205;28;20029;-74
2022/08/08 07:07:36;;;;;;;3.80;1.90;;;;;;;;;;5070597;28;20027;-80
2022/08/08 07:10:07;;;;;;;4.80;1.90;;;;;;;;;;5065962;28;20027;-76
2022/08/08 07:12:40;;;;;;;3.25;1.58;;;;;;;;;;5070020;28;20085;-74
2022/08/08 07:15:07;;;;;;;;;;;;;;;;;;5065043;28;20035;-81
2022/08/08 07:17:43;;;;;;;3.15;1.70;;;;;;;;;;5066671;28;19912;-76
2022/08/08 07:20:12;;;;;;;3.60;1.90;;;;;;;;;;5066124;28;20047;-74
2022/08/08 07:23:02;;;;;;;3.95;1.80;;;;;;;;;;5063232;28;20036;-77
2022/08/08 07:25:31;;;;;;;5.90;2.00;;;;;;;;;;5065980;28;20028;-76
2022/08/08 07:28:08;;;;;;;3.40;1.55;;;;;;;;;;5073075;28;20023;-82
2022/08/08 07:30:34;;;;;;;3.90;1.63;;;;;;;;;;5064803;28;20048;-77
2022/08/08 07:33:00;;;;;;;3.88;1.95;;;;;;;;;;5065851;28;20040;-77
2022/08/08 07:35:27;;;;;;;3.53;1.58;;;;;;;;;;5071534;28;20473;-76
2022/08/08 07:37:56;;;;;;;3.60;1.60;;;;;;;;;;5062898;28;20062;-77
2022/08/08 07:40:23;;;;;;;5.07;1.65;;;;;;;;;;5079509;28;20032;-82
2022/08/08 07:42:52;;;;;;;3.13;1.92;;;;;;;;;;5073901;28;20454;-77
2022/08/08 07:45:18;;;;;;;4.13;1.75;;;;;;;;;;5058062;28;20028;-81
2022/08/08 07:47:44;;;;;;;4.32;1.83;;;;;;;;;;5065555;28;20017;-77
2022/08/08 07:50:09;;;;;;;3.13;1.50;;;;;;;;;;5069463;28;20357;-74
2022/08/08 07:52:36;;;;;;;3.03;1.58;;;;;;;;;;5069583;28;20099;-77
2022/08/08 07:55:25;;;;;;;2.90;1.52;;;;;;;;;;5062217;28;20040;-75
2022/08/08 07:58:02;;;;;;;5.40;1.60;;;;;;;;;;5067095;28;20029;-74
2022/08/08 08:00:51;;;;;;;3.05;2.10;;;;;;;;;;5070580;28;20025;-77
2022/08/08 08:03:29;;;;;;;2.80;1.42;;;;;;;;;;5064562;28;20040;-77
2022/08/08 08:05:56;;;;;;;4.38;1.70;;;;;;;;;;5070891;28;20361;-76
2022/08/08 08:08:40;;;;;;;2.58;1.63;;;;;;;;;;5066392;28;20457;-77
2022/08/08 08:11:13;;;;;;;3.42;1.70;;;;;;;;;;5068466;28;20437;-77
2022/08/08 08:13:49;;;;;;;4.60;1.83;;;;;;;;;;5070787;28;20028;-77
2022/08/08 08:16:27;;;;;;;4.03;1.73;;;;;;;;;;5067482;28;20054;-76
2022/08/08 08:18:56;;;;;;;5.00;1.88;;;;;;;;;;5070417;28;20055;-83
2022/08/08 08:21:23;;;;;;;3.17;1.60;;;;;;;;;;5072030;28;20123;-84
2022/08/08 08:23:49;;;;;;;3.75;1.90;;;;;;;;;;5065001;28;20066;-83
2022/08/08 08:26:16;;;;;;;3.10;1.85;;;;;;;;;;5071494;28;20480;-77
2022/08/08 08:28:42;;;;;;;3.92;1.65;;;;;;;;;;5071862;28;20107;-83
2022/08/08 08:31:08;;;;;;;3.60;1.63;;;;;;;;;;5072742;28;20103;-83
2022/08/08 08:33:33;;;;;;;4.93;2.00;;;;;;;;;;5067023;28;20040;-84
2022/08/08 08:36:00;;;;;;;5.97;2.00;;;;;;;;;;5066781;28;20082;-74
2022/08/08 08:38:25;;;;;;;5.20;2.03;;;;;;;;;;5060755;28;20109;-76
2022/08/08 08:40:50;;;;;;;3.38;1.63;;;;;;;;;;5059406;28;20032;-76
2022/08/08 08:43:16;;;;;;;5.90;2.20;;;;;;;;;;5066126;28;20028;-76
2022/08/08 08:45:42;;;;;;;4.85;2.20;;;;;;;;;;5061532;28;20481;-74
2022/08/08 08:48:08;;;;;;;3.67;1.90;;;;;;;;;;5064667;28;20027;-82
2022/08/08 08:50:36;;;;;;;5.82;2.20;;;;;;;;;;5064782;28;20520;-76
2022/08/08 08:53:07;;;;;;;3.22;1.52;;;;;;;;;;5069382;28;20032;-77
2022/08/08 08:55:38;;;;;;;6.10;2.20;;;;;;;;;;5057981;28;20058;-77
2022/08/08 08:58:05;;;;;;;5.00;1.75;;;;;;;;;;5066561;28;20032;-74
2022/08/08 09:00:32;;;;;;;2.45;1.60;;;;;;;;;;5063418;28;20028;-74
2022/08/08 09:02:59;;;;;;;4.22;1.60;;;;;;;;;;5060147;28;20067;-84
2022/08/08 09:05:28;;;;;;;4.70;1.50;;;;;;;;;;5068403;28;20037;-74
2022/08/08 09:07:57;;;;;;;4.88;2.15;;;;;;;;;;5063132;28;20040;-77
2022/08/08 09:10:27;;;;;;;3.53;1.33;;;;;;;;;;5064852;28;20465;-77
2022/08/08 09:12:54;;;;;;;2.72;1.35;;;;;;;;;;5064149;28;20513;-85
2022/08/08 09:15:20;;;;;;;2.92;0.90;;;;;;;;;;5064516;28;20405;-77
2022/08/08 09:17:46;;;;;;;3.00;1.10;;;;;;;;;;5061010;28;20021;-75
2022/08/08 09:20:12;;;;;;;1.50;1.08;;;;;;;;;;5059358;28;20122;-77
2022/08/08 09:22:37;;;;;;;3.53;1.27;;;;;;;;;;5058505;28;20098;-75
2022/08/08 09:25:04;;;;;;;3.08;1.30;;;;;;;;;;5061750;28;20032;-77
2022/08/08 09:27:31;;;;;;;3.67;1.02;;;;;;;;;;5059869;28;20392;-74
2022/08/08 09:30:09;;;;;;;1.67;0.95;;;;;;;;;;5067992;28;20028;-78
2022/08/08 09:32:48;;;;;;;2.22;0.82;;;;;;;;;;5075905;28;20040;-76
2022/08/08 09:35:19;;;;;;;3.75;1.20;;;;;;;;;;5067647;28;20032;-84
2022/08/08 09:37:52;;;;;;;2.65;1.00;;;;;;;;;;5064130;28;20024;-76
2022/08/08 09:40:20;;;;;;;1.80;0.85;;;;;;;;;;5069914;28;20028;-78
2022/08/08 09:42:48;;;;;;;2.53;0.90;;;;;;;;;;5067660;28;20024;-76
2022/08/08 09:45:19;;;;;;;2.42;1.00;;;;;;;;;;5070407;28;20063;-83
2022/08/08 09:47:45;;;;;;;2.25;1.00;;;;;;;;;;5073773;28;20143;-84
2022/08/08 09:50:29;;;;;;;1.73;0.90;;;;;;;;;;5068047;28;20409;-77
2022/08/08 09:52:56;;;;;;;2.13;1.00;;;;;;;;;;5074288;28;20021;-81
2022/08/08 09:55:24;;;;;;;2.20;1.00;;;;;;;;;;5068244;28;20036;-81
2022/08/08 09:58:04;;;;;;;1.48;0.90;;;;;;;;;;5079120;28;20051;-77
2022/08/08 10:00:32;;;;;;;2.72;0.90;;;;;;;;;;5074866;28;20037;-74
2022/08/08 10:03:01;;;;;;;3.47;1.02;;;;;;;;;;5068751;28;20031;-74
2022/08/08 10:05:32;;;;;;;2.67;0.95;;;;;;;;;;5055652;28;20031;-83
2022/08/08 10:07:57;;;;;;;1.50;0.80;;;;;;;;;;5078157;28;20495;-77
2022/08/08 10:10:37;;;;;;;2.13;0.90;;;;;;;;;;5066471;28;20025;-85
2022/08/08 10:13:21;;;;;;;1.20;0.70;;;;;;;;;;5064798;28;20024;-77
2022/08/08 10:15:52;;;;;;;1.63;0.75;;;;;;;;;;5057774;28;20211;-77
2022/08/08 10:18:24;;;;;;;1.35;0.60;;;;;;;;;;5066550;28;20078;-77
2022/08/08 10:20:54;;;;;;;1.85;0.90;;;;;;;;;;5076545;28;20066;-77
2022/08/08 10:23:36;;;;;;;2.72;0.80;;;;;;;;;;5068036;28;20055;-75
2022/08/08 10:26:02;;;;;;;1.27;0.80;;;;;;;;;;5063202;28;20031;-85
2022/08/08 10:28:31;;;;;;;2.90;1.00;;;;;;;;;;5067146;28;20081;-77
2022/08/08 10:30:59;;;;;;;2.45;1.00;;;;;;;;;;5065973;28;20383;-76
2022/08/08 10:33:32;;;;;;;2.33;0.85;;;;;;;;;;5066808;28;20396;-77
2022/08/08 10:36:02;;;;;;;3.10;0.90;;;;;;;;;;5049484;28;20142;-78
2022/08/08 10:38:30;;;;;;;1.75;0.82;;;;;;;;;;5055589;28;20572;-77
2022/08/08 10:41:01;;;;;;;2.17;0.98;;;;;;;;;;5054968;28;20119;-76
2022/08/08 10:43:37;;;;;;;1.65;0.70;;;;;;;;;;5059100;28;20042;-80
2022/08/08 10:46:02;;;;;;;1.42;0.85;;;;;;;;;;5061753;28;20139;-77
2022/08/08 10:48:32;;;;;;;1.40;0.80;;;;;;;;;;5057673;28;20348;-77
2022/08/08 10:50:58;;;;;;;1.85;0.80;;;;;;;;;;5052464;28;20021;-76
2022/08/08 10:53:35;;;;;;;0.95;0.65;;;;;;;;;;5052681;28;20032;-77
2022/08/08 10:56:00;;;;;;;2.92;0.70;;;;;;;;;;5055853;28;20371;-77
2022/08/08 10:58:27;;;;;;;1.38;0.88;;;;;;;;;;5056135;28;20051;-83
2022/08/08 11:00:55;;;;;;;2.67;1.00;;;;;;;;;;5072281;28;20035;-77
2022/08/08 11:03:21;;;;;;;4.35;0.90;;;;;;;;;;5046173;28;20589;-74
2022/08/08 11:05:48;;;;;;;1.77;0.77;;;;;;;;;;5056405;28;20024;-85
2022/08/08 11:08:40;;;;;;;2.63;0.82;;;;;;;;;;5041587;28;20025;-85
2022/08/08 11:11:08;;;;;;;2.73;1.00;;;;;;;;;;5051158;28;20037;-77
2022/08/08 11:13:44;;;;;;;1.75;0.98;;;;;;;;;;5045012;28;20024;-75
2022/08/08 11:16:22;;;;;;;1.33;0.80;;;;;;;;;;5055317;28;20024;-76
2022/08/08 11:18:49;;;;;;;3.05;0.90;;;;;;;;;;5051373;28;20032;-77
2022/08/08 11:21:15;;;;;;;3.88;1.23;;;;;;;;;;5048617;28;20078;-75
2022/08/08 11:23:42;;;;;;;1.20;0.82;;;;;;;;;;5047349;28;20296;-77
2022/08/08 11:26:12;;;;;;;2.97;1.00;;;;;;;;;;5053853;28;20208;-77
2022/08/08 11:28:39;;;;;;;3.25;1.00;;;;;;;;;;5051469;28;20056;-84
2022/08/08 11:31:05;;;;;;;2.33;1.02;;;;;;;;;;5053138;28;20056;-74
2022/08/08 11:33:33;;;;;;;1.80;0.90;;;;;;;;;;5050591;28;20525;-75
2022/08/08 11:35:59;;;;;;;3.40;1.00;;;;;;;;;;5048064;28;20033;-83
2022/08/08 11:38:25;;;;;;;3.55;0.90;;;;;;;;;;5047134;28;20039;-77
2022/08/08 11:40:53;;;;;;;2.05;0.95;;;;;;;;;;5054236;28;20408;-76
2022/08/08 11:43:20;;;;;;;2.35;0.82;;;;;;;;;;5053872;28;20085;-77
2022/08/08 11:45:46;;;;;;;4.03;1.00;;;;;;;;;;5050115;28;20078;-83
2022/08/08 11:48:13;;;;;;;1.95;1.00;;;;;;;;;;5054022;28;20096;-77
2022/08/08 11:50:40;;;;;;;1.23;0.90;;;;;;;;;;5045645;28;20028;-77
2022/08/08 11:53:07;;;;;;;3.63;0.98;;;;;;;;;;5055523;28;20039;-82
2022/08/08 11:55:36;;;;;;;1.85;1.02;;;;;;;;;;5054383;28;20116;-74
2022/08/08 11:58:07;;;;;;;2.25;0.90;;;;;;;;;;5051421;28;20536;-78
2022/08/08 12:00:33;;;;;;;2.78;1.25;;;;;;;;;;5054832;28;20107;-77
2022/08/08 12:02:59;;;;;;;4.93;1.00;;;;;;;;;;5051225;28;20430;-85
2022/08/08 12:05:37;;;;;;;2.17;0.93;;;;;;;;;;5056208;28;20031;-77
2022/08/08 12:08:03;;;;;;;2.35;0.98;;;;;;;;;;5047870;28;20028;-77
2022/08/08 12:10:29;;;;;;;2.67;1.40;;;;;;;;;;5049137;28;20057;-75
2022/08/08 12:13:02;;;;;;;2.22;1.00;;;;;;;;;;5053401;28;20036;-84
2022/08/08 12:15:29;;;;;;;;;;;;;;;;;;5050688;28;20475;-85
2022/08/08 12:17:55;;;;;;;3.30;1.10;;;;;;;;;;5053591;28;19917;-77
2022/08/08 12:20:21;;;;;;;1.52;0.90;;;;;;;;;;5051924;28;20098;-82
2022/08/08 12:22:48;;;;;;;1.95;0.90;;;;;;;;;;5057632;28;20032;-76
2022/08/08 12:25:25;;;;;;;2.88;1.00;;;;;;;;;;5057894;28;20051;-74
2022/08/08 12:27:51;;;;;;;2.53;0.90;;;;;;;;;;5074544;28;20328;-74
2022/08/08 12:30:28;;;;;;;1.67;0.95;;;;;;;;;;5060014;28;20028;-73
2022/08/08 12:32:57;;;;;;;1.35;0.88;;;;;;;;;;5067839;28;20992;-77
2022/08/08 12:35:22;;;;;;;2.47;0.80;;;;;;;;;;5055779;28;20037;-86
2022/08/08 12:38:10;;;;;;;2.38;0.98;;;;;;;;;;5057136;28;20031;-77
2022/08/08 12:40:40;;;;;;;2.00;0.82;;;;;;;;;;5059894;28;20024;-77
2022/08/08 12:43:06;;;;;;;2.25;1.10;;;;;;;;;;5060638;28;20063;-77
2022/08/08 12:45:34;;;;;;;2.20;0.98;;;;;;;;;;5060386;28;20106;-82
2022/08/08 12:48:04;;;;;;;1.88;0.98;;;;;;;;;;5055839;28;20161;-81
2022/08/08 12:50:44;;;;;;;2.88;0.82;;;;;;;;;;5059392;28;20107;-77
2022/08/08 12:53:22;;;;;;;1.83;1.00;;;;;;;;;;5056229;28;20052;-83
2022/08/08 12:56:14;;;;;;;2.67;1.02;;;;;;;;;;5057740;28;20024;-82
2022/08/08 12:58:51;;;;;;;2.17;0.90;;;;;;;;;;5040289;28;20547;-78
2022/08/08 13:01:17;;;;;;;2.05;1.00;;;;;;;;;;5052049;28;20036;-81
2022/08/08 13:03:48;;;;;;;2.90;0.98;;;;;;;;;;5049092;28;20032;-74
2022/08/08 13:06:17;;;;;;;2.40;1.00;;;;;;;;;;5051474;28;20814;-77
2022/08/08 13:08:51;;;;;;;2.85;0.90;;;;;;;;;;5044168;28;20055;-75
2022/08/08 13:11:21;;;;;;;1.85;0.80;;;;;;;;;;5040733;28;20025;-77
2022/08/08 13:14:11;;;;;;;1.58;0.90;;;;;;;;;;5042071;28;20471;-77
2022/08/08 13:16:38;;;;;;;2.10;0.77;;;;;;;;;;5057960;28;20028;-78
2022/08/08 13:19:06;;;;;;;3.45;0.90;;;;;;;;;;5059576;28;21889;-79
2022/08/08 13:21:33;;;;;;;2.80;0.93;;;;;;;;;;5058464;28;20090;-74
2022/08/08 13:23:59;;;;;;;1.60;0.82;;;;;;;;;;5057609;28;20024;-75
2022/08/08 13:26:30;;;;;;;2.72;0.93;;;;;;;;;;5052228;28;20035;-77
2022/08/08 13:28:55;;;;;;;1.95;0.98;;;;;;;;;;5058061;28;20102;-83
2022/08/08 13:31:21;;;;;;;1.40;0.70;;;;;;;;;;5059648;28;20448;-77
2022/08/08 13:33:46;;;;;;;2.08;1.00;;;;;;;;;;5059773;28;20048;-74
2022/08/08 13:36:12;;;;;;;2.03;0.90;;;;;;;;;;5057121;28;20032;-77
2022/08/08 13:38:38;;;;;;;2.45;1.00;;;;;;;;;;5058708;28;20029;-76
2022/08/08 13:41:05;;;;;;;1.98;0.80;;;;;;;;;;5059704;28;20032;-84
2022/08/08 13:43:30;;;;;;;2.55;0.90;;;;;;;;;;5056761;28;20116;-77
2022/08/08 13:46:25;;;;;;;2.17;0.95;;;;;;;;;;5058273;28;20153;-74
2022/08/08 13:48:52;;;;;;;3.15;1.33;;;;;;;;;;5047033;28;20491;-77
2022/08/08 13:51:18;;;;;;;3.63;0.80;;;;;;;;;;5059305;28;20059;-77
2022/08/08 13:53:54;;;;;;;1.58;0.90;;;;;;;;;;5059760;28;20045;-76
2022/08/08 13:56:36;;;;;;;1.73;0.80;;;;;;;;;;5059754;28;20388;-77
2022/08/08 13:59:03;;;;;;;1.35;0.80;;;;;;;;;;5056173;28;20115;-77
2022/08/08 14:01:30;;;;;;;1.48;0.90;;;;;;;;;;5057923;28;20033;-86
2022/08/08 14:03:58;;;;;;;2.78;1.08;;;;;;;;;;5051967;28;20029;-77
2022/08/08 14:06:25;;;;;;;2.65;1.13;;;;;;;;;;5057270;28;20025;-77
2022/08/08 14:08:51;;;;;;;2.42;0.95;;;;;;;;;;5062000;28;20500;-83
2022/08/08 14:11:19;;;;;;;2.08;0.95;;;;;;;;;;5058599;28;20029;-76
2022/08/08 14:13:46;;;;;;;2.15;0.80;;;;;;;;;;5059197;28;20493;-77
2022/08/08 14:16:12;;;;;;;3.13;0.98;;;;;;;;;;5056525;28;20032;-74
2022/08/08 14:18:54;;;;;;;2.08;0.90;;;;;;;;;;5058509;28;20123;-85
2022/08/08 14:21:20;;;;;;;1.02;0.70;;;;;;;;;;5054593;28;20033;-85
2022/08/08 14:23:47;;;;;;;2.72;0.95;;;;;;;;;;5058619;28;20039;-74
2022/08/08 14:26:20;;;;;;;1.42;0.80;;;;;;;;;;5062007;28;20507;-77
2022/08/08 14:28:56;;;;;;;2.92;0.88;;;;;;;;;;5055878;28;20070;-74
2022/08/08 14:31:22;;;;;;;1.80;0.80;;;;;;;;;;5055521;28;20029;-81
2022/08/08 14:33:53;;;;;;;1.42;0.90;;;;;;;;;;5061324;28;20083;-78
2022/08/08 14:36:31;;;;;;;1.83;0.90;;;;;;;;;;5060966;28;20493;-77
2022/08/08 14:38:57;;;;;;;1.55;0.93;;;;;;;;;;5063834;28;20090;-77
2022/08/08 14:41:23;;;;;;;2.08;0.90;;;;;;;;;;5062362;28;20107;-77
2022/08/08 14:43:53;;;;;;;5.97;0.90;;;;;;;;;;5062419;28;20551;-84
2022/08/08 14:46:27;;;;;;;2.25;0.90;;;;;;;;;;5058892;28;20463;-74
2022/08/08 14:48:53;;;;;;;4.20;1.00;;;;;;;;;;5065112;28;20032;-78
2022/08/08 14:51:19;;;;;;;3.25;0.90;;;;;;;;;;5078819;28;20476;-78
2022/08/08 14:53:45;;;;;;;1.88;0.90;;;;;;;;;;5070500;28;20035;-77
2022/08/08 14:56:11;;;;;;;3.38;0.90;;;;;;;;;;5068079;28;20793;-77
2022/08/08 14:58:37;;;;;;;3.88;0.80;;;;;;;;;;5069434;28;20052;-77
2022/08/08 15:01:03;;;;;;;2.10;0.82;;;;;;;;;;5064535;28;20141;-87
2022/08/08 15:03:29;;;;;;;2.08;0.80;;;;;;;;;;5069857;28;20112;-76
2022/08/08 15:05:54;;;;;;;3.70;1.00;;;;;;;;;;5060484;28;20024;-77
2022/08/08 15:08:20;;;;;;;2.65;0.90;;;;;;;;;;5066958;28;20476;-77
2022/08/08 15:10:46;;;;;;;2.05;0.85;;;;;;;;;;5070153;28;20025;-74
2022/08/08 15:13:14;;;;;;;1.55;0.80;;;;;;;;;;5072920;28;20028;-74
2022/08/08 15:15:40;;;;;;;1.55;0.70;;;;;;;;;;5061247;28;20031;-77
2022/08/08 15:18:06;;;;;;;2.30;0.80;;;;;;;;;;5067793;28;20488;-73
2022/08/08 15:20:32;;;;;;;2.95;0.90;;;;;;;;;;5066247;28;20032;-83
2022/08/08 15:22:58;;;;;;;1.30;0.60;;;;;;;;;;5071726;28;20553;-74
2022/08/08 15:25:24;;;;;;;1.58;0.80;;;;;;;;;;5065629;28;20043;-76